Time;durP1;ratioP1;P1;durP2;ratioP2;P2;SDS_P1;SDS_P2;PMS_P1;PMS_P2;Temp;Humidity;BMP_temperature;BMP_pressure;BME280_temperature;BME280_humidity;BME280_pressure;Samples;Min_cycle;Max_cycle;Signal;HPM_P1;HPM_P2
2022/06/08 00:00:22;;;;;;;3.60;2.33;;;;;;;20.13;50.18;99489.03;1690587;83;22494;-65
2022/06/08 00:02:58;;;;;;;2.90;2.42;;;;;;;20.05;50.23;99490.17;1743616;80;21616;-65
2022/06/08 00:05:25;;;;;;;3.75;2.37;;;;;;;20.02;50.38;99492.13;1750320;80;21923;-65
2022/06/08 00:07:52;;;;;;;4.33;2.27;;;;;;;20.02;50.54;99497.94;1762253;80;21547;-65
2022/06/08 00:10:19;;;;;;;3.47;2.67;;;;;;;20.00;50.61;99495.42;1755916;80;21570;-66
2022/06/08 00:12:46;;;;;;;2.57;2.37;;;;;;;19.95;50.61;99494.95;1761432;80;21566;-65
2022/06/08 00:15:13;;;;;;;2.60;2.40;;;;;;;19.93;50.92;99494.23;1757065;80;21582;-65
2022/06/08 00:17:42;;;;;;;3.00;2.62;;;;;;;19.89;50.85;99486.61;1753618;80;22216;-65
2022/06/08 00:20:10;;;;;;;2.85;2.27;;;;;;;19.92;50.76;99492.53;1757723;80;21482;-65
2022/06/08 00:22:38;;;;;;;2.62;2.37;;;;;;;19.90;50.99;99493.65;1736576;80;21472;-65
2022/06/08 00:25:06;;;;;;;2.50;2.30;;;;;;;19.92;50.74;99494.36;1754421;80;21412;-65
2022/06/08 00:27:33;;;;;;;5.30;2.20;;;;;;;19.91;51.37;99492.19;1754274;80;21661;-65
2022/06/08 00:30:00;;;;;;;5.95;2.10;;;;;;;19.96;51.64;99489.95;1757263;80;21828;-65
2022/06/08 00:32:28;;;;;;;2.67;2.47;;;;;;;20.03;51.54;99487.63;1739532;80;20999;-65
2022/06/08 00:34:55;;;;;;;2.55;2.35;;;;;;;20.05;51.52;99483.01;1759562;80;21582;-65
2022/06/08 00:37:23;;;;;;;3.17;2.15;;;;;;;20.06;51.71;99489.19;1755736;80;21649;-65
2022/06/08 00:39:50;;;;;;;2.50;2.30;;;;;;;20.02;51.57;99484.59;1763254;80;21006;-64
2022/06/08 00:42:17;;;;;;;3.72;2.45;;;;;;;19.99;51.55;99481.70;1749784;80;21895;-66
2022/06/08 00:45:00;;;;;;;4.35;2.45;;;;;;;20.00;51.42;99478.54;1736774;80;21490;-65
2022/06/08 00:47:37;;;;;;;2.75;2.55;;;;;;;19.99;51.22;99480.87;1733990;80;21578;-65
2022/06/08 00:50:11;;;;;;;6.83;2.63;;;;;;;19.95;51.18;99475.44;1763296;80;21490;-67
2022/06/08 00:52:38;;;;;;;2.55;2.10;;;;;;;19.91;51.07;99476.19;1760697;80;21758;-67
2022/06/08 00:55:08;;;;;;;3.75;2.40;;;;;;;19.87;51.15;99476.06;1752385;80;22167;-66
2022/06/08 00:57:43;;;;;;;2.65;2.45;;;;;;;19.88;51.17;99478.26;1757864;80;21574;-66
2022/06/08 01:00:15;;;;;;;4.65;2.37;;;;;;;19.81;51.51;99477.42;1761496;80;21499;-66
2022/06/08 01:02:44;;;;;;;3.80;2.25;;;;;;;19.80;51.45;99475.74;1764751;80;21002;-66
2022/06/08 01:05:37;;;;;;;2.87;2.67;;;;;;;19.77;51.89;99475.15;1766361;80;21534;-66
2022/06/08 01:08:17;;;;;;;3.10;2.10;;;;;;;19.81;51.75;99476.09;1766028;80;21999;-66
2022/06/08 01:10:49;;;;;;;2.90;2.15;;;;;;;19.79;51.64;99475.87;1755150;80;21436;-66
2022/06/08 01:13:17;;;;;;;4.60;2.12;;;;;;;19.75;51.64;99471.27;1768729;80;21549;-66
2022/06/08 01:15:44;;;;;;;2.80;2.50;;;;;;;19.70;51.71;99474.77;1747947;80;21476;-65
2022/06/08 01:18:13;;;;;;;2.87;2.12;;;;;;;19.70;51.59;99471.27;1765927;80;20997;-65
2022/06/08 01:20:47;;;;;;;2.40;2.20;;;;;;;19.65;51.36;99467.66;1751577;80;21846;-66
2022/06/08 01:23:14;;;;;;;4.37;2.62;;;;;;;19.61;51.45;99472.91;1750612;80;21495;-66
2022/06/08 01:26:03;;;;;;;3.50;2.10;;;;;;;19.55;51.43;99471.59;1761550;80;20950;-66
2022/06/08 01:29:17;;;;;;;3.05;2.47;;;;;;;19.53;51.53;99478.00;1754818;80;21526;-66
2022/06/08 01:32:35;;;;;;;5.62;2.33;;;;;;;19.45;51.52;99476.81;1750848;80;21578;-66
2022/06/08 01:35:30;;;;;;;2.77;2.58;;;;;;;19.41;51.66;99471.38;1765894;80;21818;-66
2022/06/08 01:38:09;;;;;;;3.80;2.47;;;;;;;19.35;51.73;99470.55;1762094;80;21640;-68
2022/06/08 01:41:18;;;;;;;2.60;2.40;;;;;;;19.35;52.23;99474.55;1757521;80;21573;-66
2022/06/08 01:44:00;;;;;;;2.37;2.20;;;;;;;19.36;52.46;99466.91;1694341;82;21443;-65
2022/06/08 01:46:32;;;;;;;2.58;2.10;;;;;;;19.34;52.59;99468.84;1750608;80;21007;-65
2022/06/08 01:49:14;;;;;;;2.40;2.20;;;;;;;19.28;52.52;99468.03;1756871;80;21538;-66
2022/06/08 01:52:07;;;;;;;1.98;1.87;;;;;;;19.23;52.69;99472.42;1751122;80;21417;-67
2022/06/08 01:55:11;;;;;;;3.05;2.40;;;;;;;19.20;52.71;99470.48;1758689;80;21498;-67
2022/06/08 01:57:50;;;;;;;5.05;2.45;;;;;;;19.17;52.62;99469.39;1757756;80;21558;-66
2022/06/08 02:00:21;;;;;;;3.15;2.50;;;;;;;19.15;52.42;99476.17;1729467;80;21647;-66
2022/06/08 02:03:27;;;;;;;3.47;2.17;;;;;;;19.14;52.47;99471.83;1769441;80;21419;-68
2022/06/08 02:06:00;;;;;;;4.08;2.25;;;;;;;19.14;52.59;99470.50;1750505;80;21025;-67
2022/06/08 02:08:51;;;;;;;2.40;2.20;;;;;;;19.18;52.33;99469.77;1769141;80;21005;-67
2022/06/08 02:11:41;;;;;;;5.20;2.10;;;;;;;19.21;52.43;99470.83;1760409;80;21597;-66
2022/06/08 02:14:17;;;;;;;5.05;2.20;;;;;;;19.32;52.39;99481.95;1766051;80;21406;-66
2022/06/08 02:16:54;;;;;;;4.45;2.08;;;;;;;19.30;52.51;99481.23;1768959;80;21514;-65
2022/06/08 02:19:30;;;;;;;3.87;2.10;;;;;;;19.23;52.51;99487.08;1766911;80;21432;-66
2022/06/08 02:22:14;;;;;;;5.42;2.10;;;;;;;19.17;52.57;99484.88;1759220;80;21550;-66
2022/06/08 02:24:52;;;;;;;3.58;2.10;;;;;;;19.18;52.76;99486.59;1749264;80;20981;-66
2022/06/08 02:27:37;;;;;;;3.02;2.60;;;;;;;19.17;52.75;99487.55;1769896;80;21539;-65
2022/06/08 02:30:12;;;;;;;3.35;2.02;;;;;;;19.13;52.90;99493.27;1761079;80;21551;-66
2022/06/08 02:35:43;;;;;;;;;;;;;;;19.16;53.25;99491.20;1757742;80;21535;-65
2022/06/08 02:38:16;;;;;;;4.37;2.25;;;;;;;19.22;53.84;99489.86;1767770;80;20560;-65
2022/06/08 02:40:47;;;;;;;2.92;2.72;;;;;;;19.28;53.65;99490.69;1770277;80;21440;-66
2022/06/08 02:43:20;;;;;;;3.05;2.75;;;;;;;19.33;53.72;99488.50;1769110;80;21910;-68
2022/06/08 02:46:01;;;;;;;4.83;2.58;;;;;;;19.37;53.82;99489.94;1764857;80;21490;-65
2022/06/08 02:48:28;;;;;;;2.55;2.02;;;;;;;19.47;53.84;99486.02;1701520;80;21030;-65
2022/06/08 02:50:57;;;;;;;3.02;2.47;;;;;;;19.56;53.83;99490.59;1767611;80;21463;-65
2022/06/08 02:53:35;;;;;;;3.15;2.45;;;;;;;19.67;53.91;99494.21;1753521;80;21483;-65
2022/06/08 02:56:26;;;;;;;2.92;2.40;;;;;;;19.80;54.66;99495.75;1765331;80;21479;-65
2022/06/08 02:59:23;;;;;;;4.65;1.90;;;;;;;19.93;54.57;99492.91;1761389;80;21519;-64
2022/06/08 03:02:04;;;;;;;3.02;2.10;;;;;;;20.06;55.11;99490.52;1761267;80;21511;-67
2022/06/08 03:04:56;;;;;;;2.45;1.95;;;;;;;20.18;54.96;99497.00;1757220;80;21427;-65
2022/06/08 03:07:34;;;;;;;3.90;2.22;;;;;;;20.26;54.60;99496.84;1767719;80;21416;-65
2022/06/08 03:10:06;;;;;;;6.37;2.08;;;;;;;20.32;53.97;99494.47;1766130;80;21676;-65
2022/06/08 03:12:39;;;;;;;2.67;2.47;;;;;;;20.38;54.71;99495.77;1765587;80;21044;-65
2022/06/08 03:15:08;;;;;;;2.50;2.20;;;;;;;20.42;55.08;99497.22;1763063;80;21144;-65
2022/06/08 03:17:37;;;;;;;2.62;2.10;;;;;;;20.51;55.57;99491.09;1771185;80;21659;-65
2022/06/08 03:20:08;;;;;;;2.02;1.87;;;;;;;20.63;55.72;99491.03;1768014;80;21671;-65
2022/06/08 03:22:36;;;;;;;3.50;2.30;;;;;;;20.75;55.77;99488.11;1732510;81;21763;-65
2022/06/08 03:25:04;;;;;;;5.75;1.90;;;;;;;20.90;55.95;99490.42;1766237;80;21570;-65
2022/06/08 03:27:32;;;;;;;4.25;2.37;;;;;;;20.98;55.53;99489.25;1737546;80;20942;-65
2022/06/08 03:29:59;;;;;;;3.15;2.15;;;;;;;21.05;55.42;99486.39;1767023;80;21519;-65
2022/06/08 03:32:28;;;;;;;2.70;2.30;;;;;;;21.15;54.91;99485.94;1767570;80;21520;-65
2022/06/08 03:34:56;;;;;;;4.50;1.98;;;;;;;21.20;55.49;99490.36;1762230;80;22168;-65
2022/06/08 03:37:23;;;;;;;3.57;2.53;;;;;;;21.31;56.96;99490.73;1766370;80;21529;-65
2022/06/08 03:39:51;;;;;;;2.08;1.98;;;;;;;21.44;56.91;99483.83;1771921;80;21428;-65
2022/06/08 03:42:19;;;;;;;2.98;2.00;;;;;;;21.51;56.38;99485.44;1766204;80;21108;-65
2022/06/08 03:44:46;;;;;;;2.05;1.85;;;;;;;21.59;56.67;99488.28;1771275;80;21534;-65
2022/06/08 03:47:19;;;;;;;3.75;2.17;;;;;;;21.66;56.02;99487.20;1770946;80;22075;-66
2022/06/08 03:49:49;;;;;;;2.27;2.08;;;;;;;21.74;55.06;99488.70;1759529;80;20946;-66
2022/06/08 03:52:20;;;;;;;3.40;2.45;;;;;;;21.78;54.14;99484.25;1771332;80;21485;-64
2022/06/08 03:54:49;;;;;;;3.17;2.40;;;;;;;21.82;53.20;99481.30;1763201;80;21483;-64
2022/06/08 03:57:16;;;;;;;2.08;1.90;;;;;;;21.91;51.65;99479.12;1764369;80;21444;-63
2022/06/08 03:59:44;;;;;;;4.00;2.50;;;;;;;22.02;51.16;99485.66;1763017;80;22193;-63
2022/06/08 04:02:12;;;;;;;2.72;2.35;;;;;;;22.10;51.02;99490.30;1755408;80;21554;-64
2022/06/08 04:04:40;;;;;;;3.00;2.15;;;;;;;22.13;50.36;99489.52;1751676;80;21523;-64
2022/06/08 04:07:07;;;;;;;2.62;2.20;;;;;;;22.20;50.34;99487.09;1750684;80;21550;-64
2022/06/08 04:09:36;;;;;;;2.35;2.10;;;;;;;22.23;50.60;99493.51;1758450;80;21626;-65
2022/06/08 04:14:07;;;;;;;2.60;2.40;;;;;;;21.54;52.88;99495.87;1773917;78;23157;-63
2022/06/08 04:16:35;;;;;;;2.55;2.25;;;;;;;22.40;49.85;99487.93;1729951;80;21534;-63
2022/06/08 04:19:05;;;;;;;3.92;2.12;;;;;;;22.48;48.92;99486.70;1694854;83;22004;-62
2022/06/08 04:21:34;;;;;;;2.87;2.08;;;;;;;22.59;48.67;99491.55;1701620;83;21466;-63
2022/06/08 04:24:03;;;;;;;1.98;1.87;;;;;;;22.70;47.76;99492.70;1697505;83;21514;-63
2022/06/08 04:26:31;;;;;;;4.80;2.00;;;;;;;22.73;47.09;99493.25;1693886;83;21494;-64
2022/06/08 04:29:00;;;;;;;2.62;2.00;;;;;;;22.80;47.30;99496.17;1693307;81;21573;-63
2022/06/08 04:31:30;;;;;;;1.90;1.80;;;;;;;22.89;47.69;99493.94;1697612;81;21957;-63
2022/06/08 04:33:58;;;;;;;2.70;2.22;;;;;;;22.95;47.78;99488.48;1699751;81;21431;-64
2022/06/08 04:36:27;;;;;;;3.00;2.10;;;;;;;23.04;47.68;99486.79;1705298;82;21508;-64
2022/06/08 04:38:54;;;;;;;2.20;2.10;;;;;;;23.10;47.57;99492.89;1695714;82;21633;-65
2022/06/08 04:41:22;;;;;;;2.35;2.15;;;;;;;23.21;47.64;99493.19;1705397;82;21579;-65
2022/06/08 04:43:50;;;;;;;2.58;2.08;;;;;;;23.30;47.82;99497.14;1693892;82;22242;-65
2022/06/08 04:46:18;;;;;;;2.87;2.55;;;;;;;23.43;48.19;99497.25;1698528;82;21453;-65
2022/06/08 04:48:47;;;;;;;3.90;2.22;;;;;;;23.55;48.13;99489.84;1692609;82;21586;-65
2022/06/08 04:51:15;;;;;;;2.30;1.90;;;;;;;23.72;47.21;99498.39;1696696;82;21568;-65
2022/06/08 04:53:45;;;;;;;4.28;1.92;;;;;;;23.72;47.21;99498.39;1695231;82;22505;-65
2022/06/08 04:56:12;;;;;;;4.03;2.33;;;;;;;23.88;46.97;99503.08;1698132;82;22169;-65
2022/06/08 04:58:41;;;;;;;3.20;1.90;;;;;;;24.02;46.50;99503.05;1694091;82;21506;-65
2022/06/08 05:01:08;;;;;;;5.08;2.33;;;;;;;24.21;46.28;99504.70;1698459;82;21591;-66
2022/06/08 05:03:35;;;;;;;2.67;1.65;;;;;;;24.36;46.44;99504.46;1678239;82;21579;-65
2022/06/08 05:06:02;;;;;;;2.55;2.35;;;;;;;24.48;46.12;99509.89;1703095;82;21625;-66
2022/06/08 05:08:30;;;;;;;2.10;1.80;;;;;;;24.68;46.23;99502.50;1695856;82;23341;-65
2022/06/08 05:10:57;;;;;;;2.22;1.80;;;;;;;24.68;46.23;99502.50;1688792;83;21434;-68
2022/06/08 05:13:27;;;;;;;1.92;1.72;;;;;;;24.85;46.07;99498.55;1684218;83;21508;-63
2022/06/08 05:15:58;;;;;;;1.92;1.80;;;;;;;24.85;46.07;99498.55;1671959;83;21031;-65
2022/06/08 05:18:26;;;;;;;8.30;1.90;;;;;;;24.99;45.54;99497.09;1685096;82;21535;-60
2022/06/08 05:20:55;;;;;;;2.10;1.95;;;;;;;25.14;45.00;99496.80;1687462;82;21932;-60
2022/06/08 05:23:27;;;;;;;4.40;2.00;;;;;;;25.14;45.00;99496.80;1733091;80;21496;-59
2022/06/08 05:25:55;;;;;;;1.87;1.77;;;;;;;25.30;44.98;99497.87;1724269;80;21439;-60
2022/06/08 05:28:23;;;;;;;2.35;1.87;;;;;;;25.42;44.95;99501.96;1720909;80;21059;-64
2022/06/08 05:30:53;;;;;;;2.05;1.95;;;;;;;25.49;44.92;99497.61;1721063;80;21563;-64
2022/06/08 05:33:20;;;;;;;1.72;1.62;;;;;;;25.63;44.97;99488.03;1716314;80;21589;-60
2022/06/08 05:35:47;;;;;;;6.10;1.60;;;;;;;25.63;44.97;99488.03;1720842;80;21541;-60
2022/06/08 05:38:14;;;;;;;2.92;1.67;;;;;;;25.74;44.64;99498.47;1716080;80;21491;-62
2022/06/08 05:40:42;;;;;;;2.92;2.02;;;;;;;25.82;43.37;99493.11;1696106;82;21555;-62
2022/06/08 05:43:12;;;;;;;1.65;1.55;;;;;;;25.88;43.63;99494.77;1729262;79;21510;-61
2022/06/08 05:45:42;;;;;;;2.47;1.40;;;;;;;25.97;43.61;99494.62;1722590;81;21917;-65
2022/06/08 05:48:11;;;;;;;5.53;1.60;;;;;;;26.04;43.57;99489.42;1687559;84;21641;-64
2022/06/08 05:50:41;;;;;;;4.97;1.47;;;;;;;26.19;43.13;99489.58;1688792;82;21626;-64
2022/06/08 05:53:09;;;;;;;2.08;1.77;;;;;;;26.30;43.26;99491.92;1732007;80;21581;-65
2022/06/08 05:55:37;;;;;;;2.98;1.50;;;;;;;26.42;42.65;99491.88;1715842;80;21562;-66
2022/06/08 05:58:04;;;;;;;5.95;1.42;;;;;;;26.51;42.27;99493.23;1734158;79;21425;-66
2022/06/08 06:00:35;;;;;;;1.77;1.22;;;;;;;26.60;41.76;99488.19;1680768;82;21695;-64
2022/06/08 06:03:03;;;;;;;1.52;1.42;;;;;;;26.70;40.83;99487.47;1678280;84;21450;-64
2022/06/08 06:05:32;;;;;;;1.50;1.40;;;;;;;26.78;40.99;99486.08;1722477;80;21517;-64
2022/06/08 06:08:01;;;;;;;3.62;1.40;;;;;;;26.89;40.46;99483.52;1693596;82;21526;-65
2022/06/08 06:10:39;;;;;;;1.85;1.42;;;;;;;26.98;39.28;99477.59;1722713;81;21504;-65
2022/06/08 06:13:06;;;;;;;2.70;1.40;;;;;;;27.10;39.43;99477.52;1687435;82;21508;-66
2022/06/08 06:15:46;;;;;;;1.52;1.42;;;;;;;27.25;38.62;99479.47;1726376;80;21424;-65
2022/06/08 06:18:15;;;;;;;2.80;1.47;;;;;;;27.35;37.63;99472.87;1740988;80;21501;-66
2022/06/08 06:20:42;;;;;;;2.12;1.17;;;;;;;27.42;37.73;99471.62;1689186;82;21490;-65
2022/06/08 06:23:14;;;;;;;4.15;1.50;;;;;;;27.49;37.69;99473.95;1674842;84;21824;-65
2022/06/08 06:25:49;;;;;;;1.30;1.20;;;;;;;27.58;37.33;99467.98;1717560;81;21413;-65
2022/06/08 06:28:26;;;;;;;4.53;1.22;;;;;;;27.67;37.81;99460.65;1723714;80;21582;-66
2022/06/08 06:31:21;;;;;;;4.08;1.25;;;;;;;27.80;37.60;99468.15;1695929;81;21534;-65
2022/06/08 06:33:52;;;;;;;1.62;1.00;;;;;;;27.89;37.01;99466.57;1686008;84;21534;-66
2022/06/08 06:36:19;;;;;;;1.37;1.20;;;;;;;27.99;36.97;99461.42;1693457;82;21571;-66
2022/06/08 06:38:47;;;;;;;2.30;1.22;;;;;;;28.06;36.62;99474.55;1695424;82;21600;-66
2022/06/08 06:41:15;;;;;;;1.00;0.90;;;;;;;28.15;35.72;99466.17;1689539;83;21603;-66
2022/06/08 06:43:43;;;;;;;1.20;1.10;;;;;;;28.19;36.18;99466.64;1690141;82;21532;-66
2022/06/08 06:46:13;;;;;;;1.17;1.05;;;;;;;28.27;35.83;99464.37;1684133;83;21509;-66
2022/06/08 06:48:42;;;;;;;1.17;1.07;;;;;;;28.37;35.08;99464.95;1681053;82;21885;-66
2022/06/08 06:51:11;;;;;;;3.42;1.10;;;;;;;28.42;34.73;99461.68;1683389;83;21610;-66
2022/06/08 06:53:39;;;;;;;1.37;1.17;;;;;;;28.52;34.02;99471.75;1686723;82;21026;-66
2022/06/08 06:56:08;;;;;;;4.97;1.37;;;;;;;28.62;34.35;99463.36;1664094;83;21475;-66
2022/06/08 06:58:49;;;;;;;1.17;1.07;;;;;;;28.67;34.16;99465.83;1690732;82;21416;-66
2022/06/08 07:01:17;;;;;;;1.40;0.80;;;;;;;28.79;33.42;99468.06;1683669;83;21829;-66
2022/06/08 07:03:44;;;;;;;3.75;1.00;;;;;;;28.89;34.00;99467.23;1683633;82;26410;-66
2022/06/08 07:06:11;;;;;;;2.00;0.93;;;;;;;28.95;34.26;99458.88;1695173;82;21564;-66
2022/06/08 07:08:38;;;;;;;0.80;0.80;;;;;;;29.00;34.41;99464.05;1682074;82;21531;-66
2022/06/08 07:13:52;;;;;;;2.45;0.90;;;;;;;29.05;33.49;99460.27;1682382;82;21810;-66
2022/06/08 07:16:20;;;;;;;2.62;0.98;;;;;;;29.12;33.28;99459.84;1684292;82;21562;-66
2022/06/08 07:18:46;;;;;;;2.92;1.22;;;;;;;29.25;32.56;99456.97;1679730;82;21460;-67
2022/06/08 07:21:14;;;;;;;1.05;0.95;;;;;;;29.28;32.49;99456.08;1650156;84;26880;-66
2022/06/08 07:23:42;;;;;;;3.30;1.10;;;;;;;29.29;32.45;99458.26;1688832;82;21594;-67
2022/06/08 07:26:08;;;;;;;;;;;;;;;29.29;32.45;99458.26;1691155;83;22278;-66
2022/06/08 07:28:36;;;;;;;2.35;1.10;;;;;;;29.34;31.82;99455.83;1693681;82;20431;-67
2022/06/08 07:31:03;;;;;;;2.55;1.20;;;;;;;29.37;32.08;99460.03;1677362;82;21604;-66
2022/06/08 07:33:30;;;;;;;1.27;1.00;;;;;;;29.39;31.68;99465.57;1692788;82;21664;-66
2022/06/08 07:35:57;;;;;;;2.85;1.00;;;;;;;29.40;30.62;99456.40;1688801;83;22216;-66
2022/06/08 07:38:24;;;;;;;2.25;1.25;;;;;;;29.42;30.94;99457.57;1693308;82;21893;-67
2022/06/08 07:40:51;;;;;;;1.30;1.02;;;;;;;29.48;31.34;99459.53;1694826;82;21508;-66
2022/06/08 07:43:19;;;;;;;2.02;1.25;;;;;;;29.55;30.94;99461.77;1687412;82;21005;-66
2022/06/08 07:45:45;;;;;;;1.85;1.37;;;;;;;29.54;30.79;99457.92;1680745;82;21034;-66
2022/06/08 07:50:57;;;;;;;7.08;1.50;;;;;;;29.57;31.24;99450.73;1698486;82;22096;-67
2022/06/08 07:53:24;;;;;;;4.60;1.57;;;;;;;29.69;30.99;99446.49;1677167;82;21535;-67
2022/06/08 07:55:50;;;;;;;1.42;1.25;;;;;;;29.81;31.27;99454.44;1679543;83;21580;-67
2022/06/08 07:58:17;;;;;;;1.57;1.17;;;;;;;29.83;31.12;99451.01;1685755;83;21510;-66
2022/06/08 08:00:47;;;;;;;1.50;1.35;;;;;;;29.91;31.31;99459.52;1687189;82;21010;-67
2022/06/08 08:03:16;;;;;;;1.30;1.20;;;;;;;29.98;30.95;99449.57;1682395;82;21977;-67
2022/06/08 08:05:44;;;;;;;1.30;1.20;;;;;;;29.96;30.42;99444.86;1679340;82;21532;-68
2022/06/08 08:08:11;;;;;;;;;;;;;;;29.98;30.58;99448.73;1688387;83;21134;-67
2022/06/08 08:10:38;;;;;;;1.67;1.10;;;;;;;30.00;29.54;99448.02;1689058;82;20447;-67
2022/06/08 08:13:07;;;;;;;1.27;1.17;;;;;;;29.96;30.04;99446.22;1683732;82;21065;-67
2022/06/08 08:15:34;;;;;;;1.47;1.25;;;;;;;30.00;29.86;99444.79;1689705;82;21692;-67
2022/06/08 08:18:02;;;;;;;1.15;1.10;;;;;;;29.68;30.71;99444.28;1692208;83;21498;-67
2022/06/08 08:20:29;;;;;;;1.70;1.40;;;;;;;30.02;30.18;99445.95;1687409;82;21423;-67
2022/06/08 08:22:57;;;;;;;2.25;1.37;;;;;;;30.01;30.35;99441.05;1692351;83;21463;-67
2022/06/08 08:25:24;;;;;;;1.60;1.50;;;;;;;30.08;30.08;99443.80;1689993;82;21530;-67
2022/06/08 08:27:51;;;;;;;;;;;;;;;30.10;28.88;99440.38;1700599;82;21798;-67
2022/06/08 08:30:23;;;;;;;2.90;1.12;;;;;;;29.99;29.84;99442.27;1691055;82;20376;-67
2022/06/08 08:32:49;;;;;;;3.02;1.20;;;;;;;30.01;29.29;99438.88;1689913;83;21629;-67
2022/06/08 08:35:17;;;;;;;1.32;1.07;;;;;;;30.02;29.68;99437.30;1696233;82;21469;-67
2022/06/08 08:37:45;;;;;;;3.17;1.27;;;;;;;30.03;29.75;99437.63;1695336;82;21649;-67
2022/06/08 08:40:36;;;;;;;1.50;1.10;;;;;;;30.05;29.96;99435.55;1691475;82;21883;-67
2022/06/08 08:43:03;;;;;;;1.35;1.10;;;;;;;30.11;29.62;99433.10;1692253;82;21566;-67
2022/06/08 08:45:32;;;;;;;4.30;1.17;;;;;;;30.20;29.72;99429.20;1691767;82;21550;-67
2022/06/08 08:48:06;;;;;;;2.30;0.98;;;;;;;30.26;29.98;99428.40;1670637;83;21599;-67
2022/06/08 08:50:55;;;;;;;5.50;1.52;;;;;;;30.38;29.87;99427.34;1699109;82;21539;-67
2022/06/08 08:53:41;;;;;;;3.22;1.40;;;;;;;30.44;29.73;99426.55;1696446;82;21606;-68
2022/06/08 08:56:16;;;;;;;1.40;1.27;;;;;;;30.36;30.03;99418.58;1669734;83;21730;-67
2022/06/08 08:58:47;;;;;;;1.30;1.20;;;;;;;30.49;30.11;99419.18;1728370;80;21518;-67
2022/06/08 09:01:27;;;;;;;2.35;1.07;;;;;;;30.59;29.66;99412.36;1728824;80;21501;-67
2022/06/08 09:04:26;;;;;;;2.50;1.42;;;;;;;30.65;29.29;99418.32;1692460;82;21556;-67
2022/06/08 09:06:52;;;;;;;3.15;1.40;;;;;;;30.57;29.48;99413.58;1737189;80;22255;-67
2022/06/08 09:09:32;;;;;;;5.60;1.12;;;;;;;30.47;29.60;99417.48;1724283;80;21624;-67
2022/06/08 09:11:59;;;;;;;0.93;0.93;;;;;;;30.46;29.16;99414.48;1720792;81;21077;-67
2022/06/08 09:14:50;;;;;;;2.60;1.30;;;;;;;30.64;29.18;99410.38;1732541;80;21467;-67
2022/06/08 09:17:36;;;;;;;2.52;0.90;;;;;;;30.69;28.90;99407.91;1734362;80;21609;-67
2022/06/08 09:20:20;;;;;;;1.35;1.05;;;;;;;30.70;28.99;99409.56;1696761;82;21906;-67
2022/06/08 09:22:48;;;;;;;0.95;0.95;;;;;;;30.55;28.94;99412.94;1710568;82;21502;-67
2022/06/08 09:25:31;;;;;;;1.60;1.50;;;;;;;30.28;29.27;99414.95;1696182;82;21580;-67
2022/06/08 09:27:58;;;;;;;3.75;1.22;;;;;;;30.30;28.84;99408.51;1684553;83;21425;-67
2022/06/08 09:30:34;;;;;;;2.02;1.40;;;;;;;30.26;28.69;99406.71;1692327;83;21430;-67
2022/06/08 09:33:18;;;;;;;1.98;1.10;;;;;;;30.31;28.40;99400.67;1694133;83;22161;-67
2022/06/08 09:35:59;;;;;;;1.22;1.22;;;;;;;30.46;28.75;99400.09;1675078;84;21558;-66
2022/06/08 09:38:28;;;;;;;1.30;1.00;;;;;;;30.75;28.49;99400.83;1677799;83;21467;-67
2022/06/08 09:41:17;;;;;;;2.77;1.12;;;;;;;30.99;28.09;99403.03;1680229;83;21032;-67
2022/06/08 09:44:15;;;;;;;3.65;1.00;;;;;;;31.16;28.16;99401.31;1680466;84;21632;-67
2022/06/08 09:53:05;;;;;;;3.83;1.20;;;;;;;31.14;28.16;99403.40;1677679;83;21041;-66
2022/06/08 09:55:53;;;;;;;1.87;1.10;;;;;;;31.16;27.52;99394.52;1675979;83;21552;-67
2022/06/08 09:58:38;;;;;;;6.20;1.17;;;;;;;31.13;26.99;99394.92;1679287;83;21515;-68
2022/06/08 10:01:30;;;;;;;1.45;1.20;;;;;;;30.99;27.00;99392.17;1676651;84;21924;-67
2022/06/08 10:04:11;;;;;;;0.90;0.90;;;;;;;31.04;27.42;99381.55;1678059;83;21645;-67
2022/06/08 10:06:58;;;;;;;3.37;1.67;;;;;;;31.24;26.86;99381.57;1689820;84;21496;-67
2022/06/08 10:09:43;;;;;;;3.20;1.20;;;;;;;31.33;27.05;99380.86;1683051;83;20967;-67
2022/06/08 10:12:44;;;;;;;1.22;1.00;;;;;;;31.37;26.39;99377.21;1675266;83;21086;-67
2022/06/08 10:15:24;;;;;;;1.27;1.17;;;;;;;31.32;27.00;99373.75;1614528;86;22056;-67
2022/06/08 10:18:16;;;;;;;2.75;1.47;;;;;;;31.14;26.76;99382.50;1687288;82;21009;-67
2022/06/08 10:20:54;;;;;;;4.78;1.42;;;;;;;31.01;26.55;99373.80;1699182;82;21509;-67
2022/06/08 10:23:41;;;;;;;2.83;1.40;;;;;;;31.08;27.09;99375.19;1736034;80;21636;-67
2022/06/08 10:26:43;;;;;;;3.70;1.05;;;;;;;31.13;27.29;99360.98;1722859;81;21443;-67
2022/06/08 10:29:31;;;;;;;2.20;1.32;;;;;;;31.20;27.55;99359.95;1739395;80;21958;-67
2022/06/08 10:32:22;;;;;;;1.52;1.22;;;;;;;31.42;27.12;99362.50;1725112;79;21106;-67
2022/06/08 10:34:54;;;;;;;1.85;1.07;;;;;;;31.65;27.59;99358.53;1741749;80;21659;-67
2022/06/08 10:37:35;;;;;;;1.30;1.20;;;;;;;31.88;27.66;99355.39;1741586;80;21625;-68
2022/06/08 10:40:09;;;;;;;1.22;1.10;;;;;;;32.03;26.72;99349.75;1727404;80;21562;-67
2022/06/08 10:42:46;;;;;;;1.87;1.07;;;;;;;32.17;27.27;99350.88;1738033;80;21765;-67
2022/06/08 10:45:30;;;;;;;1.82;1.40;;;;;;;32.26;26.85;99351.45;1733898;80;21511;-67
2022/06/08 10:48:15;;;;;;;3.10;1.32;;;;;;;32.38;26.82;99352.97;1693469;82;20998;-67
2022/06/08 10:50:46;;;;;;;1.52;0.93;;;;;;;32.45;26.53;99352.43;1735654;79;20990;-68
2022/06/08 10:56:26;;;;;;;2.75;1.55;;;;;;;32.39;26.22;99347.33;1703666;82;21941;-60
2022/06/08 10:59:10;;;;;;;1.77;1.40;;;;;;;32.52;26.29;99346.97;1748861;80;21575;-60
2022/06/08 11:02:03;;;;;;;3.55;1.42;;;;;;;32.63;26.72;99346.86;1736473;80;21443;-61
2022/06/08 11:04:37;;;;;;;2.67;1.10;;;;;;;32.74;26.11;99348.37;1689699;82;21088;-60
2022/06/08 11:07:16;;;;;;;1.60;1.20;;;;;;;32.88;25.80;99348.29;1738759;80;21442;-60
2022/06/08 11:09:49;;;;;;;4.25;1.17;;;;;;;33.00;25.39;99344.34;1695230;83;21820;-59
2022/06/08 11:12:27;;;;;;;1.80;1.20;;;;;;;33.09;25.64;99336.22;1691830;82;21442;-59
2022/06/08 11:14:57;;;;;;;3.45;1.22;;;;;;;33.19;25.05;99339.34;1736901;79;21053;-59
2022/06/08 11:17:36;;;;;;;1.52;1.12;;;;;;;33.18;25.28;99337.66;1726963;80;21594;-59
2022/06/08 11:20:36;;;;;;;2.22;1.32;;;;;;;33.20;25.17;99328.73;1708417;82;21024;-60
2022/06/08 11:23:23;;;;;;;3.10;1.30;;;;;;;33.29;25.02;99334.75;1688988;84;21977;-61
2022/06/08 11:26:14;;;;;;;0.95;0.95;;;;;;;33.42;24.82;99332.42;1681253;84;21519;-63
2022/06/08 11:28:45;;;;;;;2.75;1.20;;;;;;;33.40;24.57;99331.31;1682210;82;21002;-62
2022/06/08 11:31:29;;;;;;;1.40;1.30;;;;;;;33.40;25.23;99324.50;1678465;82;21573;-62
2022/06/08 11:34:17;;;;;;;1.22;1.00;;;;;;;33.42;25.26;99317.44;1692831;82;21561;-61
2022/06/08 11:37:15;;;;;;;3.05;1.40;;;;;;;33.48;25.07;99318.76;1651320;84;21825;-62
2022/06/08 11:40:04;;;;;;;4.85;1.40;;;;;;;33.58;25.59;99317.42;1685242;82;21511;-62
2022/06/08 11:42:48;;;;;;;2.67;1.32;;;;;;;33.62;24.85;99315.37;1686174;82;21488;-64
2022/06/08 11:45:25;;;;;;;3.90;1.15;;;;;;;33.68;24.46;99313.67;1651175;82;21493;-62
2022/06/08 11:48:18;;;;;;;1.57;1.10;;;;;;;33.69;24.54;99309.91;1691753;82;21014;-62
2022/06/08 11:50:59;;;;;;;1.77;1.12;;;;;;;33.59;24.96;99309.53;1722471;80;21895;-62
2022/06/08 11:53:42;;;;;;;1.87;1.15;;;;;;;33.54;24.84;99309.69;1714214;80;21673;-61
2022/06/08 11:56:30;;;;;;;1.37;1.25;;;;;;;33.57;24.51;99305.70;1724237;80;20997;-60
2022/06/08 11:59:01;;;;;;;3.15;1.17;;;;;;;33.67;24.29;99298.39;1720118;80;21787;-60
2022/06/08 12:01:33;;;;;;;1.00;0.90;;;;;;;33.62;24.29;99300.38;1733868;80;21062;-60
2022/06/08 12:04:09;;;;;;;1.50;1.40;;;;;;;33.68;24.42;99294.59;1675341;84;21566;-60
2022/06/08 12:06:39;;;;;;;4.78;1.30;;;;;;;33.83;23.79;99298.33;1686615;84;21451;-60
2022/06/08 12:09:12;;;;;;;2.60;1.15;;;;;;;33.87;24.04;99293.58;1734532;80;21557;-60
2022/06/08 12:11:42;;;;;;;3.92;1.10;;;;;;;33.93;24.01;99301.38;1709250;81;21587;-60
2022/06/08 12:14:31;;;;;;;4.30;1.05;;;;;;;33.85;22.84;99290.24;1731506;80;21622;-61
2022/06/08 12:17:16;;;;;;;3.80;1.10;;;;;;;33.77;23.82;99291.05;1726652;80;22662;-62
2022/06/08 12:19:55;;;;;;;2.60;1.20;;;;;;;33.87;24.19;99298.17;1741614;80;21529;-61
2022/06/08 12:22:29;;;;;;;2.90;1.10;;;;;;;34.02;23.81;99295.93;1745377;80;21491;-61
2022/06/08 12:25:18;;;;;;;2.12;1.10;;;;;;;34.14;23.24;99302.27;1729948;80;20998;-61
2022/06/08 12:27:55;;;;;;;2.20;1.10;;;;;;;34.21;22.72;99289.97;1732899;80;20950;-61